Cupertino, CA

1:27 PM PST on December 22, 2014 (GMT -0800)
Monta Vista | Change Station
CLOSE
Current Station
Personal Weather Station
Location: Cupertino, CA
Elevation: 300 ft
Nearby Weather Stations

Elev 300 ft 37.32 °N, 122.05 °W | Updated 35 seconds ago

Partly Cloudy
Partly Cloudy
71.4 °F
Feels Like 76 °F
N
3.8
Wind Variable Wind from North
Gusts 7.6 mph

Today
High -- | Low -- °F
--% Chance of Precip.
Yesterday
High -- | Low -- °F
Precip. -- in
7:19 AM 4:54 PM
New Moon, 1% visible
Pressure 30.22 in
Visibility 10.0 miles
Clouds Clear
Heat Index 76 °F
Dew Point 57 °F
Humidity 60%
Rainfall 0.00 in
Snow Depth Not available.
UV 3 out of 12
Pollen 4.40 out of 12
Air Quality Not available.
Flu Activity Not available.
METAR KNUQ 222056Z 33006KT 10SM CLR 17/12 A3022 RMK AO2 SLP234 T01670122 58029

More Conditions Fewer Conditions

Pressure 30.22 in
Visibility 10.0 miles
Clouds Clear
Heat Index 76 °F
Dew Point 57 °F
Humidity 60%
Rainfall 0.00 in
Snow Depth Not available.
UV 3 out of 12
Pollen 4.40 out of 12
Air Quality Not available.
Flu Activity Not available.
METAR KNUQ 222056Z 33006KT 10SM CLR 17/12 A3022 RMK AO2 SLP234 T01670122 58029

More Conditions Fewer Conditions

10-Day Weather Forecast

Almanac

Astronomy

Dec. 22, 2014 Rise Set
Actual Time
Civil Twilight
Nautical Twilight
Astronomical Twilight
Moon
Length of Visible Light
Length of Day
Tomorrow will be .
, % of the Moon is Illuminated

Today's Extremes

State Highs State Lows

Community

WunderPhotos

Upload Photos

1,779,682 photos uploaded!

WunderBlogs® & News

Nearby

Air Quality

  Air Quality AQ Index Pollutant
Not available.

Snow Depth

Station Depth Elevation

Earthquake Activity

City Distance Mag. Time & Date
Minimum magnitude displayed is 2.5.

Coastal Water Temperatures

Place Temperature

Nearby Weather Stations